North Houston, Texas
Current Conditions -  °F | °C
As of 7:53 AM on Wednesday 26 Nov 2014 (Local Time) from KDWH Reporting Station
Clear Clear  
Wind Chill: 44°   Ceiling: Unl
Heat Index: 48°   Visibility: 10mi
Dew Point: 39°   Wind: 9mph
Humidity: 71%   Direction: 230°SW
Pressure: 30.23"   Gusts: NA
Location:  29.93°N, 95.52°W
Report Text: KDWH 261353Z 23008KT 10SM CLR 09/04 A3023 RMK AO2 SLP235 T00890039
Loading
Personal Weather Stations






























Interactive Weather Map New forecast layout! Learn more

10-Day Weather Forecast

Advertisements
Track Severe Weather on mobile